Station Historical Data
Daily Summary for April 19, 2017 Units:  Metric    English   Both
« Previous Day
Next Day »
Daily Weekly Monthly Yearly Custom
  High: Low: Average:
Temperature: 16.8 °C 8.4 °C 13.7 °C
Dew Point: 13.2 °C 2.2 °C 9 °C
Humidity: 93% 54% 75%
Wind Speed: 29km/h 0km/h 6.3km/h
Wind Gust: 33.8km/h - -
Wind- - South
Pressure: 1023.6 hPa 1015.1 hPa -
Precipitation: 0 mm    
Historical Graphs
 
 
Tabular Data for April 19, 2017
Time Temperature Dew Point Pressure Wind Wind Speed Wind Gust Humidity Rainfall Rate (Hourly)
00:04 9.5 °C 3.2 °C 1023.2 hPa Calm   3.2 km/h 65% 0 mm
00:09 9.6 °C 3.3 °C 1023.6 hPa ENE 1.6 km/h 8 km/h 65% 0 mm
00:14 9.6 °C 3.1 °C 1023.2 hPa ENE 1.6 km/h 3.2 km/h 64% 0 mm
00:19 9.6 °C 3.1 °C 1023.2 hPa Calm   3.2 km/h 64% 0 mm
00:24 9.5 °C 3 °C 1023.2 hPa ESE 1.6 km/h 4.8 km/h 64% 0 mm
00:29 9.5 °C 3 °C 1023.2 hPa Calm   4.8 km/h 64% 0 mm
00:34 9.5 °C 3 °C 1023.2 hPa Calm   3.2 km/h 64% 0 mm
00:39 9 °C 2.8 °C 1023.2 hPa Calm   4.8 km/h 65% 0 mm
00:44 9.1 °C 2.8 °C 1023.2 hPa Calm   3.2 km/h 65% 0 mm
00:49 9.1 °C 2.9 °C 1023.2 hPa Calm   3.2 km/h 65% 0 mm
00:54 9.1 °C 2.8 °C 1023.2 hPa Calm   3.2 km/h 65% 0 mm
00:59 9.2 °C 2.7 °C 1023.2 hPa Calm   4.8 km/h 64% 0 mm
01:04 9.1 °C 2.7 °C 1022.9 hPa East 1.6 km/h 8 km/h 64% 0 mm
01:09 9 °C 2.6 °C 1022.9 hPa East 1.6 km/h 8 km/h 64% 0 mm
01:14 8.8 °C 2.4 °C 1022.6 hPa East 1.6 km/h 3.2 km/h 64% 0 mm
01:19 9.1 °C 2.6 °C 1022.6 hPa ENE 1.6 km/h 4.8 km/h 64% 0 mm
01:24 9.1 °C 2.4 °C 1022.9 hPa Calm   4.8 km/h 63% 0 mm
01:29 9.1 °C 2.4 °C 1022.6 hPa East 3.2 km/h 3.2 km/h 63% 0 mm
01:34 9.1 °C 2.4 °C 1022.6 hPa East 1.6 km/h 3.2 km/h 63% 0 mm
01:39 8.8 °C 2.4 °C 1022.6 hPa Calm     64% 0 mm
01:44 8.7 °C 2.2 °C 1022.6 hPa Calm     64% 0 mm
01:49 8.8 °C 2.3 °C 1022.6 hPa Calm   3.2 km/h 64% 0 mm
01:59 8.5 °C 2.3 °C 1022.2 hPa Calm   4.8 km/h 65% 0 mm
02:04 8.4 °C 2.4 °C 1021.9 hPa Calm   4.8 km/h 66% 0 mm
02:09 8.5 °C 2.5 °C 1021.9 hPa ESE 1.6 km/h 4.8 km/h 66% 0 mm
02:14 8.6 °C 2.4 °C 1021.9 hPa Calm   1.6 km/h 65% 0 mm
02:19 8.7 °C 2.5 °C 1021.6 hPa ESE 1.6 km/h 3.2 km/h 65% 0 mm
02:24 8.9 °C 2.4 °C 1021.6 hPa Calm   6.4 km/h 64% 0 mm
02:29 8.9 °C 2.5 °C 1021.6 hPa Calm   3.2 km/h 64% 0 mm
02:34 9.1 °C 2.6 °C 1021.6 hPa ESE 1.6 km/h 4.8 km/h 64% 0 mm
02:39 9.2 °C 2.5 °C 1021.2 hPa ESE 1.6 km/h 3.2 km/h 63% 0 mm
02:44 9.3 °C 2.7 °C 1021.2 hPa ESE 1.6 km/h 4.8 km/h 63% 0 mm
02:49 9.7 °C 2.7 °C 1021.2 hPa SE 3.2 km/h 11.3 km/h 62% 0 mm
02:54 9.9 °C 3 °C 1021.2 hPa SE 3.2 km/h 11.3 km/h 62% 0 mm
02:59 10.1 °C 2.9 °C 1020.9 hPa SE 3.2 km/h 8 km/h 61% 0 mm
03:04 10.3 °C 2.8 °C 1020.9 hPa SE 3.2 km/h 8 km/h 60% 0 mm
03:09 10.3 °C 3.1 °C 1020.5 hPa SE 3.2 km/h 8 km/h 61% 0 mm
03:14 10.4 °C 2.9 °C 1020.5 hPa SE 4.8 km/h 4.8 km/h 60% 0 mm
03:19 10.4 °C 3 °C 1020.5 hPa SE 3.2 km/h 6.4 km/h 60% 0 mm
03:24 10.5 °C 2.8 °C 1020.5 hPa SE 1.6 km/h 6.4 km/h 59% 0 mm
03:29 10.5 °C 2.8 °C 1020.5 hPa Calm     59% 0 mm
03:34 10.5 °C 2.8 °C 1020.5 hPa Calm     59% 0 mm
03:39 10.5 °C 3.1 °C 1020.5 hPa Calm     60% 0 mm
03:44 10.4 °C 3 °C 1020.5 hPa Calm     60% 0 mm
03:49 10.4 °C 2.8 °C 1020.5 hPa Calm     59% 0 mm
03:54 10.4 °C 3 °C 1020.5 hPa Calm     60% 0 mm
03:59 10.4 °C 3.2 °C 1020.2 hPa Calm     61% 0 mm
04:04 10.4 °C 3.2 °C 1020.2 hPa Calm     61% 0 mm
04:09 10.5 °C 3.3 °C 1020.2 hPa Calm     61% 0 mm
04:14 10.6 °C 3.3 °C 1019.9 hPa Calm     61% 0 mm
04:19 10.6 °C 3.3 °C 1019.9 hPa Calm     61% 0 mm
04:24 10.6 °C 3.3 °C 1019.9 hPa Calm     61% 0 mm
04:29 10.7 °C 3.4 °C 1019.9 hPa Calm     61% 0 mm
04:34 10.8 °C 3.6 °C 1019.9 hPa Calm     61% 0 mm
04:39 10.8 °C 3.6 °C 1019.9 hPa Calm     61% 0 mm
04:44 10.8 °C 3.6 °C 1019.9 hPa Calm     61% 0 mm
04:49 11 °C 3.8 °C 1019.5 hPa Calm     61% 0 mm
04:54 11.3 °C 4 °C 1019.5 hPa Calm   4.8 km/h 61% 0 mm
04:59 11.7 °C 4.2 °C 1019.5 hPa Calm   4.8 km/h 60% 0 mm
05:04 11.9 °C 4.4 °C 1019.5 hPa Calm   3.2 km/h 60% 0 mm
05:09 12.2 °C 4.6 °C 1019.5 hPa Calm   3.2 km/h 60% 0 mm
05:14 12.6 °C 5.1 °C 1019.5 hPa South 1.6 km/h 8 km/h 60% 0 mm
05:19 13.1 °C 5.3 °C 1019.5 hPa SSW 3.2 km/h 8 km/h 59% 0 mm
05:24 13.6 °C 5.4 °C 1019.5 hPa SSW 3.2 km/h 8 km/h 58% 0 mm
05:29 14.1 °C 5.7 °C 1019.5 hPa South 8 km/h 11.3 km/h 57% 0 mm
05:34 14.6 °C 5.6 °C 1019.2 hPa South 11.3 km/h 12.9 km/h 55% 0 mm
05:39 14.8 °C 5.8 °C 1019.2 hPa SSE 8 km/h 14.5 km/h 55% 0 mm
05:44 15.1 °C 5.9 °C 1019.2 hPa South 8 km/h 24.1 km/h 54% 0 mm
05:49 15.3 °C 6 °C 1019.2 hPa South 8 km/h 24.1 km/h 54% 0 mm
05:54 15.3 °C 6.3 °C 1018.8 hPa South 11.3 km/h 16.1 km/h 55% 0 mm
05:59 15.3 °C 6.3 °C 1019.2 hPa South 4.8 km/h 12.9 km/h 55% 0 mm
06:04 15.4 °C 6.4 °C 1019.2 hPa SSW 11.3 km/h 17.7 km/h 55% 0 mm
06:09 15.4 °C 6.7 °C 1018.8 hPa South 8 km/h 22.5 km/h 56% 0 mm
06:14 15.4 °C 6.7 °C 1018.8 hPa South 9.7 km/h 22.5 km/h 56% 0 mm
06:19 15.7 °C 6.7 °C 1018.8 hPa South 9.7 km/h 27.4 km/h 55% 0 mm
06:24 15.7 °C 6.4 °C 1018.8 hPa South 11.3 km/h 27.4 km/h 54% 0 mm
06:29 15.8 °C 6.5 °C 1018.8 hPa South 9.7 km/h 20.9 km/h 54% 0 mm
06:34 15.8 °C 6.5 °C 1018.8 hPa South 8 km/h 19.3 km/h 54% 0 mm
06:39 15.8 °C 6.5 °C 1018.5 hPa SSE 14.5 km/h 20.9 km/h 54% 0 mm
06:44 15.9 °C 6.6 °C 1018.8 hPa South 11.3 km/h 29 km/h 54% 0 mm
06:49 15.8 °C 6.8 °C 1018.5 hPa SSE 8 km/h 16.1 km/h 55% 0 mm
06:54 15.9 °C 6.6 °C 1018.5 hPa South 8 km/h 20.9 km/h 54% 0 mm
06:59 16.1 °C 7 °C 1018.5 hPa SSW 8 km/h 19.3 km/h 55% 0 mm
07:04 16.1 °C 7.1 °C 1018.5 hPa SSE 9.7 km/h 20.9 km/h 55% 0 mm
07:09 16.1 °C 7.1 °C 1018.5 hPa South 11.3 km/h 20.9 km/h 55% 0 mm
07:14 16.2 °C 6.8 °C 1018.5 hPa South 11.3 km/h 22.5 km/h 54% 0 mm
07:19 16.3 °C 7.2 °C 1018.5 hPa SSW 9.7 km/h 16.1 km/h 55% 0 mm
07:24 16.3 °C 7.3 °C 1018.8 hPa South 11.3 km/h 19.3 km/h 55% 0 mm
07:29 16.4 °C 7.3 °C 1018.5 hPa South 6.4 km/h 20.9 km/h 55% 0 mm
07:34 16.4 °C 7.3 °C 1018.5 hPa SSE 8 km/h 20.9 km/h 55% 0 mm
07:39 16.4 °C 7.3 °C 1018.2 hPa South 9.7 km/h 20.9 km/h 55% 0 mm
07:44 16.4 °C 7.4 °C 1018.5 hPa South 9.7 km/h 25.7 km/h 55% 0 mm
07:49 16.6 °C 7.3 °C 1018.5 hPa SSE 8 km/h 25.7 km/h 54% 0 mm
07:54 16.7 °C 7.3 °C 1018.5 hPa SSW 9.7 km/h 27.4 km/h 54% 0 mm
07:59 16.8 °C 7.7 °C 1018.2 hPa South 16.1 km/h 27.4 km/h 55% 0 mm
08:04 16.7 °C 7.6 °C 1018.5 hPa South 12.9 km/h 27.4 km/h 55% 0 mm
08:09 16.7 °C 7.6 °C 1018.5 hPa SSW 11.3 km/h 30.6 km/h 55% 0 mm
08:14 16.6 °C 7.8 °C 1018.2 hPa SSW 4.8 km/h 25.7 km/h 56% 0 mm
08:19 16.6 °C 7.8 °C 1018.5 hPa South 9.7 km/h 19.3 km/h 56% 0 mm
08:24 16.6 °C 7.8 °C 1018.5 hPa SSW 12.9 km/h 22.5 km/h 56% 0 mm
08:29 16.4 °C 8.7 °C 1018.5 hPa SSW 12.9 km/h 29 km/h 60% 0 mm
08:39 15.2 °C 9.3 °C 1018.5 hPa South 14.5 km/h 29 km/h 68% 0.25 mm
08:44 15 °C 9.3 °C 1018.5 hPa SSW 12.9 km/h 29 km/h 69% 0.25 mm
08:49 15.1 °C 9.2 °C 1018.2 hPa SSW 12.9 km/h 19.3 km/h 68% 0.25 mm
08:54 15.2 °C 9.3 °C 1018.2 hPa SSW 11.3 km/h 24.1 km/h 68% 0.25 mm
08:59 15.3 °C 9.4 °C 1018.2 hPa South 29 km/h 29 km/h 68% 0.25 mm
09:04 15.3 °C 9.4 °C 1018.5 hPa SSW 8 km/h 27.4 km/h 68% 0.51 mm
09:09 14.9 °C 9.7 °C 1018.5 hPa SSW 9.7 km/h 25.7 km/h 71% 0.76 mm
09:14 14.4 °C 9.7 °C 1018.8 hPa SSW 11.3 km/h 27.4 km/h 73% 1.52 mm
09:19 13.8 °C 9.9 °C 1018.5 hPa SSW 11.3 km/h 27.4 km/h 77% 2.29 mm
09:24 13.3 °C 9.6 °C 1018.5 hPa SSW 9.7 km/h 24.1 km/h 78% 2.54 mm
09:29 13.2 °C 9.8 °C 1018.5 hPa SSW 6.4 km/h 17.7 km/h 80% 2.79 mm
09:34 12.9 °C 9.8 °C 1018.2 hPa SSW 4.8 km/h 12.9 km/h 81% 3.56 mm
09:39 12.9 °C 9.9 °C 1018.2 hPa South 3.2 km/h 8 km/h 82% 3.56 mm
09:44 13.1 °C 10.1 °C 1018.2 hPa South 9.7 km/h 9.7 km/h 82% 3.81 mm
09:49 13.2 °C 10 °C 1017.8 hPa South 4.8 km/h 9.7 km/h 81% 3.81 mm
09:54 13.2 °C 10.1 °C 1017.8 hPa South 4.8 km/h 9.7 km/h 81% 3.81 mm
09:59 13.3 °C 10.3 °C 1018.2 hPa South 4.8 km/h 8 km/h 82% 4.32 mm
10:04 13.3 °C 10.3 °C 1018.2 hPa South 1.6 km/h 6.4 km/h 82% 4.57 mm
10:09 13.2 °C 10.3 °C 1017.8 hPa South 3.2 km/h 9.7 km/h 83% 4.83 mm
10:14 13.2 °C 10.2 °C 1018.2 hPa SSW 4.8 km/h 11.3 km/h 82% 4.32 mm
10:19 13.3 °C 10.3 °C 1018.2 hPa SSW 4.8 km/h 11.3 km/h 82% 4.06 mm
10:24 13.6 °C 10.6 °C 1018.2 hPa SSW 4.8 km/h 16.1 km/h 82% 4.32 mm
10:29 13.8 °C 10.6 °C 1018.2 hPa SSW 6.4 km/h 19.3 km/h 81% 4.06 mm
10:34 13.9 °C 10.7 °C 1018.2 hPa South 4.8 km/h 22.5 km/h 81% 3.3 mm
10:39 13.8 °C 10.6 °C 1018.2 hPa SW 12.9 km/h 16.1 km/h 81% 3.56 mm
10:44 13.8 °C 10.8 °C 1018.2 hPa SSW 6.4 km/h 16.1 km/h 82% 3.56 mm
10:49 14.1 °C 11.1 °C 1017.8 hPa SSW 6.4 km/h 12.9 km/h 82% 3.56 mm
10:54 14.3 °C 11.1 °C 1017.8 hPa SSW 6.4 km/h 12.9 km/h 81% 3.56 mm
10:59 14.4 °C 11.1 °C 1017.8 hPa SSW 8 km/h 16.1 km/h 80% 3.05 mm
11:04 14.8 °C 11.2 °C 1017.8 hPa SSW 8 km/h 16.1 km/h 79% 2.29 mm
11:09 15.1 °C 11.1 °C 1017.8 hPa SE 6.4 km/h 25.7 km/h 77% 2.03 mm
11:14 15.3 °C 10.7 °C 1017.5 hPa SW 14.5 km/h 29 km/h 74% 1.78 mm
11:19 15.3 °C 10.7 °C 1017.5 hPa SW 14.5 km/h 19.3 km/h 74% 1.27 mm
11:24 15.4 °C 10.6 °C 1017.5 hPa SW 6.4 km/h 24.1 km/h 73% 0.76 mm
11:29 15.4 °C 10.6 °C 1017.5 hPa SSW 12.9 km/h 20.9 km/h 73% 0.76 mm
11:34 15.3 °C 10.7 °C 1017.5 hPa SW 11.3 km/h 30.6 km/h 74% 0.51 mm
11:39 15.2 °C 11 °C 1017.5 hPa SSW 14.5 km/h 27.4 km/h 76% 0.25 mm
11:44 15.4 °C 11.1 °C 1017.5 hPa South 12.9 km/h 27.4 km/h 75% 0 mm
11:49 15.3 °C 10.9 °C 1017.5 hPa SSW 12.9 km/h 29 km/h 75% 0 mm
11:54 15.2 °C 10.8 °C 1017.5 hPa SSW 12.9 km/h 29 km/h 75% 0 mm
11:59 15.2 °C 10.8 °C 1017.2 hPa SSW 11.3 km/h 29 km/h 75% 0 mm
12:04 15.3 °C 10.7 °C 1017.2 hPa South 11.3 km/h 30.6 km/h 74% 0 mm
12:09 15.4 °C 10.8 °C 1016.8 hPa SSE 11.3 km/h 27.4 km/h 74% 0 mm
12:14 15.5 °C 10.9 °C 1017.2 hPa South 17.7 km/h 22.5 km/h 74% 0 mm
12:19 15.5 °C 10.4 °C 1017.2 hPa South 12.9 km/h 27.4 km/h 72% 0 mm
12:24 15.4 °C 10.8 °C 1017.2 hPa SSW 11.3 km/h 29 km/h 74% 0 mm
12:29 15.4 °C 10.8 °C 1016.8 hPa SSW 20.9 km/h 24.1 km/h 74% 0 mm
12:34 15.5 °C 10.7 °C 1016.8 hPa WSW 17.7 km/h 29 km/h 73% 0 mm
12:39 15.5 °C 10.9 °C 1016.8 hPa SSW 14.5 km/h 29 km/h 74% 0 mm
12:44 15.4 °C 10.8 °C 1016.5 hPa South 12.9 km/h 27.4 km/h 74% 0 mm
12:49 15.3 °C 10.7 °C 1016.8 hPa South 12.9 km/h 32.2 km/h 74% 0 mm
12:54 15.3 °C 10.7 °C 1016.5 hPa South 12.9 km/h 32.2 km/h 74% 0 mm
12:59 15.4 °C 10.8 °C 1016.5 hPa SSW 14.5 km/h 33.8 km/h 74% 0 mm
13:04 15.4 °C 10.8 °C 1016.5 hPa South 11.3 km/h 32.2 km/h 74% 0 mm
13:09 15.2 °C 11 °C 1016.8 hPa WSW 6.4 km/h 19.3 km/h 76% 0 mm
13:14 15.1 °C 11.1 °C 1016.8 hPa South 16.1 km/h 25.7 km/h 77% 0 mm
13:19 14.9 °C 11.2 °C 1016.8 hPa SW 14.5 km/h 22.5 km/h 78% 0.25 mm
13:24 14.8 °C 11.2 °C 1016.8 hPa South 4.8 km/h 19.3 km/h 79% 0.25 mm
13:29 14.8 °C 11.2 °C 1016.8 hPa SSW 11.3 km/h 20.9 km/h 79% 0.25 mm
13:34 14.7 °C 11.1 °C 1016.5 hPa SSW 11.3 km/h 22.5 km/h 79% 0.51 mm
13:39 14.6 °C 11.2 °C 1016.8 hPa SSW 9.7 km/h 22.5 km/h 80% 0.76 mm
13:44 14.5 °C 11.3 °C 1016.8 hPa SSW 11.3 km/h 24.1 km/h 81% 1.02 mm
13:49 14.4 °C 11.3 °C 1016.8 hPa SSW 11.3 km/h 24.1 km/h 82% 1.27 mm
13:54 14.3 °C 11.4 °C 1016.8 hPa SSW 11.3 km/h 20.9 km/h 83% 1.27 mm
13:59 14.2 °C 11.3 °C 1016.5 hPa SSW 9.7 km/h 32.2 km/h 83% 1.52 mm
14:04 14.2 °C 11.6 °C 1016.5 hPa SSW 11.3 km/h 32.2 km/h 84% 1.52 mm
14:09 14.5 °C 11.8 °C 1016.5 hPa SSW 11.3 km/h 27.4 km/h 84% 1.52 mm
14:14 14.9 °C 12.4 °C 1016.5 hPa SSW 9.7 km/h 27.4 km/h 85% 1.27 mm
14:19 14.8 °C 11.9 °C 1016.5 hPa SSW 11.3 km/h 27.4 km/h 83% 1.27 mm
14:24 14.8 °C 11.9 °C 1016.5 hPa SE 8 km/h 27.4 km/h 83% 1.27 mm
14:29 15.1 °C 12.2 °C 1016.5 hPa SSW 12.9 km/h 25.7 km/h 83% 1.27 mm
14:34 15.1 °C 12 °C 1016.1 hPa South 9.7 km/h 30.6 km/h 82% 1.02 mm
14:39 15.2 °C 12.2 °C 1016.5 hPa South 24.1 km/h 30.6 km/h 82% 0.76 mm
14:44 15.2 °C 11.9 °C 1016.5 hPa WSW 17.7 km/h 24.1 km/h 81% 0.51 mm
14:49 15.2 °C 11.7 °C 1016.5 hPa South 9.7 km/h 29 km/h 80% 0.25 mm
14:54 15.1 °C 11.9 °C 1016.5 hPa South 4.8 km/h 20.9 km/h 81% 0.25 mm
14:59 15.1 °C 11.9 °C 1016.1 hPa SW 12.9 km/h 29 km/h 81% 0 mm
15:04 15.1 °C 11.9 °C 1016.1 hPa South 8 km/h 29 km/h 81% 0 mm
15:09 15.1 °C 11.8 °C 1016.5 hPa South 9.7 km/h 22.5 km/h 81% 0 mm
15:14 15.2 °C 11.9 °C 1016.1 hPa South 9.7 km/h 22.5 km/h 81% 0 mm
15:19 15.3 °C 12.1 °C 1016.1 hPa SSW 9.7 km/h 22.5 km/h 81% 0 mm
15:24 15.3 °C 11.8 °C 1015.8 hPa South 11.3 km/h 33.8 km/h 80% 0 mm
15:29 15.4 °C 12 °C 1015.8 hPa WSW 16.1 km/h 24.1 km/h 80% 0 mm
15:34 15.6 °C 11.9 °C 1015.5 hPa SSW 19.3 km/h 27.4 km/h 79% 0 mm
15:39 15.7 °C 11.9 °C 1015.5 hPa South 17.7 km/h 30.6 km/h 78% 0 mm
15:44 15.9 °C 12.1 °C 1015.8 hPa South 12.9 km/h 20.9 km/h 78% 0 mm
15:49 16.2 °C 12.1 °C 1015.5 hPa SSE 17.7 km/h 24.1 km/h 77% 0 mm
15:54 16.4 °C 12.3 °C 1015.5 hPa SSW 9.7 km/h 29 km/h 77% 0 mm
15:59 16.4 °C 12.2 °C 1015.5 hPa SSW 12.9 km/h 29 km/h 76% 0 mm
16:04 16.4 °C 12.2 °C 1015.5 hPa SSW 11.3 km/h 24.1 km/h 76% 0 mm
16:09 16.3 °C 12.1 °C 1015.5 hPa SSW 12.9 km/h 25.7 km/h 76% 0 mm
16:14 16.3 °C 12.1 °C 1015.5 hPa South 11.3 km/h 24.1 km/h 76% 0 mm
16:19 16.2 °C 12.2 °C 1015.8 hPa WSW 14.5 km/h 22.5 km/h 77% 0 mm
16:24 16.1 °C 12.3 °C 1015.5 hPa SSW 11.3 km/h 25.7 km/h 78% 0 mm
16:29 16.1 °C 12.3 °C 1015.8 hPa SSW 11.3 km/h 25.7 km/h 78% 0 mm
16:34 16.1 °C 12.4 °C 1015.5 hPa SSW 9.7 km/h 17.7 km/h 79% 0 mm
16:39 16.2 °C 12.5 °C 1015.5 hPa SSW 11.3 km/h 22.5 km/h 79% 0 mm
16:44 16.2 °C 12.5 °C 1015.5 hPa South 8 km/h 17.7 km/h 79% 0.25 mm
16:49 16.1 °C 12.7 °C 1015.5 hPa SSW 11.3 km/h 14.5 km/h 80% 0.25 mm
16:54 16.2 °C 12.7 °C 1015.5 hPa South 8 km/h 12.9 km/h 80% 0.25 mm
16:59 16.2 °C 12.7 °C 1015.5 hPa SSW 9.7 km/h 17.7 km/h 80% 0.25 mm
17:04 16.2 °C 12.8 °C 1015.5 hPa SSW 8 km/h 9.7 km/h 80% 0.25 mm
17:09 16.3 °C 12.8 °C 1015.1 hPa SSW 6.4 km/h 12.9 km/h 80% 0.25 mm
17:14 16.3 °C 13 °C 1015.1 hPa SW 11.3 km/h 16.1 km/h 81% 0.25 mm
17:19 16.2 °C 12.9 °C 1015.5 hPa South 3.2 km/h 14.5 km/h 81% 0.25 mm
17:24 16.2 °C 12.9 °C 1015.5 hPa SSW 8 km/h 24.1 km/h 81% 0.25 mm
17:29 16.1 °C 13.2 °C 1015.5 hPa SSW 8 km/h 24.1 km/h 83% 0.51 mm
17:34 15.9 °C 13.1 °C 1015.5 hPa SW 6.4 km/h 14.5 km/h 83% 0.51 mm
17:39 15.9 °C 13 °C 1015.8 hPa WSW 6.4 km/h 14.5 km/h 83% 1.27 mm
17:44 15.6 °C 12.9 °C 1016.1 hPa West 6.4 km/h 14.5 km/h 84% 1.27 mm
17:49 15.2 °C 12.7 °C 1016.5 hPa West 11.3 km/h 17.7 km/h 85% 1.27 mm
17:54 14.6 °C 11.9 °C 1016.8 hPa WSW 11.3 km/h 19.3 km/h 84% 2.29 mm
17:59 14.2 °C 11.8 °C 1016.8 hPa WNW 16.1 km/h 17.7 km/h 86% 2.29 mm
18:04 13.9 °C 11.8 °C 1016.5 hPa WSW 6.4 km/h 16.1 km/h 87% 2.79 mm
18:09 13.9 °C 11.9 °C 1016.5 hPa WSW 3.2 km/h 9.7 km/h 88% 2.79 mm
18:14 13.9 °C 12 °C 1016.1 hPa West 3.2 km/h 8 km/h 88% 2.79 mm
18:19 13.9 °C 12 °C 1016.1 hPa WSW 1.6 km/h 6.4 km/h 88% 2.79 mm
18:24 13.9 °C 12.2 °C 1016.1 hPa WSW 3.2 km/h 8 km/h 89% 2.54 mm
18:29 14 °C 12.1 °C 1016.1 hPa SW 3.2 km/h 8 km/h 88% 2.54 mm
18:34 14 °C 12.1 °C 1016.1 hPa WSW 4.8 km/h 8 km/h 88% 2.54 mm
18:39 14.1 °C 12.1 °C 1016.5 hPa Calm   4.8 km/h 88% 1.78 mm
18:44 14.1 °C 12.3 °C 1016.5 hPa Calm   8 km/h 89% 1.52 mm
18:49 14.1 °C 12.3 °C 1016.5 hPa SW 1.6 km/h 6.4 km/h 89% 1.52 mm
18:59 14.2 °C 12.2 °C 1016.5 hPa SW 1.6 km/h 4.8 km/h 88% 0.25 mm
19:04 14.2 °C 12.3 °C 1016.8 hPa SW 4.8 km/h 11.3 km/h 88% 0 mm
19:14 14.3 °C 12.3 °C 1016.5 hPa SW 4.8 km/h 11.3 km/h 88% 0 mm
19:19 14.2 °C 12.3 °C 1016.5 hPa SSW 6.4 km/h 11.3 km/h 88% 0 mm
19:24 14.2 °C 12.2 °C 1016.5 hPa SW 4.8 km/h 11.3 km/h 88% 0 mm
19:29 14.1 °C 12.1 °C 1016.8 hPa SW 4.8 km/h 11.3 km/h 88% 0 mm
19:34 14 °C 12.1 °C 1016.8 hPa WSW 1.6 km/h 9.7 km/h 88% 0 mm
19:39 14 °C 12.1 °C 1016.8 hPa WSW 3.2 km/h 4.8 km/h 88% 0 mm
19:44 13.9 °C 12 °C 1016.8 hPa SW 1.6 km/h 8 km/h 88% 0 mm
19:49 13.9 °C 11.9 °C 1017.2 hPa SW 4.8 km/h 8 km/h 88% 0 mm
19:54 13.8 °C 11.9 °C 1017.2 hPa SW 3.2 km/h 6.4 km/h 88% 0 mm
19:59 13.8 °C 12 °C 1016.8 hPa SW 1.6 km/h 6.4 km/h 89% 0 mm
20:04 13.8 °C 12 °C 1016.8 hPa SW 1.6 km/h 4.8 km/h 89% 0 mm
20:09 13.7 °C 11.9 °C 1017.2 hPa SSW 1.6 km/h 4.8 km/h 89% 0 mm
20:14 13.7 °C 11.9 °C 1016.8 hPa SW 1.6 km/h 6.4 km/h 89% 0 mm
20:24 13.7 °C 11.9 °C 1017.2 hPa SW 3.2 km/h 3.2 km/h 89% 0 mm
20:29 13.8 °C 12 °C 1017.2 hPa Calm   3.2 km/h 89% 0 mm
20:34 13.8 °C 12 °C 1017.2 hPa Calm     89% 0 mm
20:39 13.7 °C 11.9 °C 1017.2 hPa Calm     89% 0 mm
20:44 13.7 °C 12.1 °C 1017.2 hPa Calm     90% 0 mm
20:49 13.7 °C 12.1 °C 1017.2 hPa Calm     90% 0 mm
20:54 13.7 °C 12.1 °C 1017.2 hPa Calm     90% 0 mm
20:59 13.7 °C 12.1 °C 1017.2 hPa Calm     90% 0 mm
21:04 13.6 °C 12 °C 1017.5 hPa Calm     90% 0 mm
21:09 13.6 °C 11.9 °C 1017.5 hPa Calm     90% 0 mm
21:14 13.6 °C 12 °C 1017.5 hPa Calm     90% 0 mm
21:19 13.7 °C 12.2 °C 1017.8 hPa Calm     91% 0 mm
21:24 13.7 °C 12.3 °C 1017.8 hPa Calm     91% 0 mm
21:29 13.8 °C 12.4 °C 1017.8 hPa Calm   6.4 km/h 91% 0 mm
21:34 13.9 °C 12.4 °C 1018.2 hPa WSW 1.6 km/h 4.8 km/h 91% 0 mm
21:39 13.9 °C 12.4 °C 1018.2 hPa Calm   3.2 km/h 91% 0 mm
21:44 13.9 °C 12.4 °C 1018.2 hPa Calm     91% 0 mm
21:49 13.8 °C 12.3 °C 1017.8 hPa Calm     91% 0 mm
21:54 13.7 °C 12.1 °C 1018.2 hPa Calm     90% 0 mm
21:59 13.6 °C 12.1 °C 1018.2 hPa Calm     91% 0 mm
22:04 13.3 °C 11.7 °C 1018.2 hPa Calm     90% 0 mm
22:09 13.3 °C 11.8 °C 1018.2 hPa Calm     91% 0 mm
22:14 13.1 °C 11.7 °C 1018.2 hPa Calm     91% 0 mm
22:19 12.9 °C 11.4 °C 1018.2 hPa Calm     91% 0 mm
22:24 12.9 °C 11.6 °C 1018.2 hPa Calm     92% 0 mm
22:29 12.9 °C 11.7 °C 1018.2 hPa Calm     92% 0 mm
22:34 12.9 °C 11.6 °C 1018.2 hPa Calm     92% 0 mm
22:39 12.9 °C 11.6 °C 1018.5 hPa Calm     92% 0 mm
22:44 13 °C 11.7 °C 1018.5 hPa Calm     92% 0 mm
22:49 12.9 °C 11.6 °C 1018.2 hPa Calm     92% 0 mm
22:54 13 °C 11.7 °C 1018.5 hPa Calm     92% 0 mm
22:59 13.1 °C 11.9 °C 1018.2 hPa Calm     93% 0 mm
23:04 13.3 °C 12.2 °C 1018.5 hPa Calm   3.2 km/h 93% 0 mm
23:09 13.5 °C 12.4 °C 1018.5 hPa NE 4.8 km/h 6.4 km/h 93% 0 mm
23:14 13.5 °C 12.4 °C 1018.2 hPa NNE 3.2 km/h 9.7 km/h 93% 0 mm
23:19 13.4 °C 12.2 °C 1018.2 hPa NNE 4.8 km/h 9.7 km/h 92% 0 mm
23:24 13.3 °C 12 °C 1018.2 hPa North 3.2 km/h 6.4 km/h 92% 0 mm
23:29 13.2 °C 11.9 °C 1018.2 hPa NNE 3.2 km/h 11.3 km/h 92% 0 mm
23:34 13 °C 11.7 °C 1018.2 hPa NE 4.8 km/h 11.3 km/h 92% 0 mm
23:39 12.9 °C 11.7 °C 1018.2 hPa ENE 6.4 km/h 8 km/h 92% 0 mm
23:44 12.9 °C 11.7 °C 1018.2 hPa ENE 4.8 km/h 8 km/h 92% 0 mm
23:49 12.9 °C 11.7 °C 1018.2 hPa NE 3.2 km/h 8 km/h 92% 0 mm
23:54 12.9 °C 11.5 °C 1018.2 hPa NE 3.2 km/h 9.7 km/h 91% 0 mm
23:59 13 °C 11.6 °C 1018.5 hPa NE 4.8 km/h 6.4 km/h 91% 0 mm
Buffalo, New York, USA
Compliments of Weather Underground - 2.5 mb